sensor_id;sensor_type;location;lat;lon;timestamp;pressure;altitude;pressure_sealevel;temperature;humidity
47524;BME280;33253;42.144;25.884;2023-04-10T00:00:49;100637.06;;;6.41;99.46
47524;BME280;33253;42.144;25.884;2023-04-10T00:03:21;100652.13;;;6.35;100.00
47524;BME280;33253;42.144;25.884;2023-04-10T00:05:48;100685.72;;;6.54;100.00
47524;BME280;33253;42.144;25.884;2023-04-10T00:08:13;100692.13;;;6.62;100.00
47524;BME280;33253;42.144;25.884;2023-04-10T00:10:38;100683.88;;;6.83;100.00
47524;BME280;33253;42.144;25.884;2023-04-10T00:13:04;100676.22;;;7.00;99.01
47524;BME280;33253;42.144;25.884;2023-04-10T00:15:29;100673.34;;;7.10;97.38
47524;BME280;33253;42.144;25.884;2023-04-10T00:17:55;100673.53;;;7.13;96.89
47524;BME280;33253;42.144;25.884;2023-04-10T00:20:21;100664.47;;;7.20;97.01
47524;BME280;33253;42.144;25.884;2023-04-10T00:22:47;100658.00;;;7.26;96.53
47524;BME280;33253;42.144;25.884;2023-04-10T00:25:13;100656.88;;;7.38;95.50
47524;BME280;33253;42.144;25.884;2023-04-10T00:27:38;100663.06;;;7.41;94.83
47524;BME280;33253;42.144;25.884;2023-04-10T00:30:04;100661.50;;;7.45;93.84
47524;BME280;33253;42.144;25.884;2023-04-10T00:32:30;100657.00;;;7.41;93.50
47524;BME280;33253;42.144;25.884;2023-04-10T00:34:55;100660.91;;;7.01;94.77
47524;BME280;33253;42.144;25.884;2023-04-10T00:37:21;100654.09;;;6.55;97.57
47524;BME280;33253;42.144;25.884;2023-04-10T00:39:49;100652.81;;;6.32;99.45
47524;BME280;33253;42.144;25.884;2023-04-10T00:42:15;100646.88;;;5.88;100.00
47524;BME280;33253;42.144;25.884;2023-04-10T00:44:40;100603.50;;;5.48;100.00
47524;BME280;33253;42.144;25.884;2023-04-10T00:47:06;100641.44;;;5.69;100.00
47524;BME280;33253;42.144;25.884;2023-04-10T00:49:33;100649.78;;;5.94;100.00
47524;BME280;33253;42.144;25.884;2023-04-10T00:51:59;100639.31;;;6.05;100.00
47524;BME280;33253;42.144;25.884;2023-04-10T00:54:25;100610.31;;;6.06;100.00
47524;BME280;33253;42.144;25.884;2023-04-10T00:56:51;100637.25;;;6.14;99.63
47524;BME280;33253;42.144;25.884;2023-04-10T00:59:17;100642.16;;;6.09;100.00
47524;BME280;33253;42.144;25.884;2023-04-10T01:01:42;100596.31;;;5.86;100.00
47524;BME280;33253;42.144;25.884;2023-04-10T01:04:08;100581.81;;;5.56;100.00
47524;BME280;33253;42.144;25.884;2023-04-10T01:06:53;100599.28;;;5.48;100.00
47524;BME280;33253;42.144;25.884;2023-04-10T01:09:40;100638.31;;;5.59;100.00
47524;BME280;33253;42.144;25.884;2023-04-10T01:17:37;100634.59;;;5.54;100.00
47524;BME280;33253;42.144;25.884;2023-04-10T01:30:45;100638.94;;;5.55;100.00
47524;BME280;33253;42.144;25.884;2023-04-10T01:33:12;100636.22;;;5.52;100.00
47524;BME280;33253;42.144;25.884;2023-04-10T01:35:42;100634.81;;;5.57;100.00
47524;BME280;33253;42.144;25.884;2023-04-10T01:38:09;100636.84;;;5.63;100.00
47524;BME280;33253;42.144;25.884;2023-04-10T01:40:38;100638.63;;;5.79;100.00
47524;BME280;33253;42.144;25.884;2023-04-10T01:43:07;100639.53;;;5.94;99.54
47524;BME280;33253;42.144;25.884;2023-04-10T01:45:34;100643.41;;;5.88;97.37
47524;BME280;33253;42.144;25.884;2023-04-10T01:48:00;100635.41;;;5.68;99.28
47524;BME280;33253;42.144;25.884;2023-04-10T01:50:27;100633.28;;;5.46;100.00
47524;BME280;33253;42.144;25.884;2023-04-10T01:52:55;100575.97;;;5.15;100.00
47524;BME280;33253;42.144;25.884;2023-04-10T01:55:22;100637.88;;;5.51;100.00
47524;BME280;33253;42.144;25.884;2023-04-10T01:57:49;100647.25;;;5.51;100.00
47524;BME280;33253;42.144;25.884;2023-04-10T02:00:15;100638.81;;;5.39;100.00
47524;BME280;33253;42.144;25.884;2023-04-10T02:02:42;100633.28;;;5.17;100.00
47524;BME280;33253;42.144;25.884;2023-04-10T02:05:08;100637.81;;;5.08;100.00
47524;BME280;33253;42.144;25.884;2023-04-10T02:07:56;100635.78;;;5.02;100.00
47524;BME280;33253;42.144;25.884;2023-04-10T02:10:29;100636.47;;;5.00;100.00
47524;BME280;33253;42.144;25.884;2023-04-10T02:13:04;100633.94;;;4.60;100.00
47524;BME280;33253;42.144;25.884;2023-04-10T02:15:30;100631.91;;;4.54;100.00
47524;BME280;33253;42.144;25.884;2023-04-10T02:17:58;100637.50;;;4.62;100.00
47524;BME280;33253;42.144;25.884;2023-04-10T02:20:24;100624.94;;;4.51;100.00
47524;BME280;33253;42.144;25.884;2023-04-10T02:22:50;100594.44;;;4.14;100.00
47524;BME280;33253;42.144;25.884;2023-04-10T02:25:16;100624.34;;;4.29;100.00
47524;BME280;33253;42.144;25.884;2023-04-10T02:27:41;100633.06;;;4.32;100.00
47524;BME280;33253;42.144;25.884;2023-04-10T02:30:07;100632.59;;;4.11;100.00
47524;BME280;33253;42.144;25.884;2023-04-10T02:32:33;100612.81;;;4.09;100.00
47524;BME280;33253;42.144;25.884;2023-04-10T02:34:59;100618.53;;;4.18;100.00
47524;BME280;33253;42.144;25.884;2023-04-10T02:37:25;100617.94;;;4.22;100.00
47524;BME280;33253;42.144;25.884;2023-04-10T02:39:51;100616.44;;;4.12;100.00
47524;BME280;33253;42.144;25.884;2023-04-10T02:42:17;100599.44;;;3.99;100.00
47524;BME280;33253;42.144;25.884;2023-04-10T02:44:42;100611.19;;;3.70;100.00
47524;BME280;33253;42.144;25.884;2023-04-10T02:47:08;100612.28;;;3.49;100.00
47524;BME280;33253;42.144;25.884;2023-04-10T02:49:33;100602.97;;;3.49;100.00
47524;BME280;33253;42.144;25.884;2023-04-10T02:51:59;100561.56;;;3.28;100.00
47524;BME280;33253;42.144;25.884;2023-04-10T02:54:25;100613.31;;;3.64;100.00
47524;BME280;33253;42.144;25.884;2023-04-10T02:56:50;100610.97;;;3.67;100.00
47524;BME280;33253;42.144;25.884;2023-04-10T02:59:16;100611.22;;;3.84;100.00
47524;BME280;33253;42.144;25.884;2023-04-10T03:01:42;100620.19;;;4.04;100.00
47524;BME280;33253;42.144;25.884;2023-04-10T03:04:07;100619.94;;;4.26;100.00
47524;BME280;33253;42.144;25.884;2023-04-10T03:06:33;100583.06;;;4.23;100.00
47524;BME280;33253;42.144;25.884;2023-04-10T03:08:58;100618.44;;;4.57;100.00
47524;BME280;33253;42.144;25.884;2023-04-10T03:11:24;100627.47;;;4.65;100.00
47524;BME280;33253;42.144;25.884;2023-04-10T03:13:49;100619.28;;;4.70;100.00
47524;BME280;33253;42.144;25.884;2023-04-10T03:16:15;100620.22;;;4.58;100.00
47524;BME280;33253;42.144;25.884;2023-04-10T03:18:42;100603.09;;;4.43;100.00
47524;BME280;33253;42.144;25.884;2023-04-10T03:21:08;100625.41;;;4.59;100.00
47524;BME280;33253;42.144;25.884;2023-04-10T03:23:34;100603.78;;;4.67;100.00
47524;BME280;33253;42.144;25.884;2023-04-10T03:26:00;100620.06;;;4.83;100.00
47524;BME280;33253;42.144;25.884;2023-04-10T03:28:26;100616.59;;;4.96;100.00
47524;BME280;33253;42.144;25.884;2023-04-10T03:30:52;100614.03;;;4.96;100.00
47524;BME280;33253;42.144;25.884;2023-04-10T03:33:17;100622.56;;;5.10;100.00
47524;BME280;33253;42.144;25.884;2023-04-10T03:35:44;100562.84;;;4.67;100.00
47524;BME280;33253;42.144;25.884;2023-04-10T03:38:09;100629.22;;;4.79;100.00
47524;BME280;33253;42.144;25.884;2023-04-10T03:40:35;100626.56;;;4.78;100.00
47524;BME280;33253;42.144;25.884;2023-04-10T03:43:02;100632.94;;;4.84;100.00
47524;BME280;33253;42.144;25.884;2023-04-10T03:45:27;100627.81;;;4.84;100.00
47524;BME280;33253;42.144;25.884;2023-04-10T03:47:53;100636.81;;;4.78;100.00
47524;BME280;33253;42.144;25.884;2023-04-10T03:50:18;100619.22;;;4.56;100.00
47524;BME280;33253;42.144;25.884;2023-04-10T03:52:43;100620.91;;;4.55;100.00
47524;BME280;33253;42.144;25.884;2023-04-10T03:55:09;100645.00;;;4.59;100.00
47524;BME280;33253;42.144;25.884;2023-04-10T03:57:35;100587.75;;;4.43;100.00
47524;BME280;33253;42.144;25.884;2023-04-10T04:00:01;100620.84;;;4.68;100.00
47524;BME280;33253;42.144;25.884;2023-04-10T04:02:27;100632.28;;;4.74;100.00
47524;BME280;33253;42.144;25.884;2023-04-10T04:04:52;100629.50;;;4.84;100.00
47524;BME280;33253;42.144;25.884;2023-04-10T04:07:17;100633.84;;;4.85;100.00
47524;BME280;33253;42.144;25.884;2023-04-10T04:09:43;100635.88;;;4.91;100.00
47524;BME280;33253;42.144;25.884;2023-04-10T04:12:08;100636.81;;;4.78;100.00
47524;BME280;33253;42.144;25.884;2023-04-10T04:14:34;100627.88;;;4.58;100.00
47524;BME280;33253;42.144;25.884;2023-04-10T04:17:00;100640.66;;;4.44;100.00
47524;BME280;33253;42.144;25.884;2023-04-10T04:19:25;100636.03;;;4.52;100.00
47524;BME280;33253;42.144;25.884;2023-04-10T04:21:51;100643.31;;;4.46;100.00
47524;BME280;33253;42.144;25.884;2023-04-10T04:24:16;100637.41;;;4.47;100.00
47524;BME280;33253;42.144;25.884;2023-04-10T04:26:42;100639.94;;;4.33;100.00
47524;BME280;33253;42.144;25.884;2023-04-10T04:29:07;100634.16;;;4.36;100.00
47524;BME280;33253;42.144;25.884;2023-04-10T04:31:32;100627.97;;;4.32;100.00
47524;BME280;33253;42.144;25.884;2023-04-10T04:34:01;100636.03;;;4.38;100.00
47524;BME280;33253;42.144;25.884;2023-04-10T04:36:26;100647.16;;;4.39;100.00
47524;BME280;33253;42.144;25.884;2023-04-10T04:38:55;100642.13;;;4.41;100.00
47524;BME280;33253;42.144;25.884;2023-04-10T04:41:20;100643.19;;;4.31;100.00
47524;BME280;33253;42.144;25.884;2023-04-10T04:43:46;100647.91;;;4.25;100.00
47524;BME280;33253;42.144;25.884;2023-04-10T04:46:12;100647.22;;;4.27;100.00
47524;BME280;33253;42.144;25.884;2023-04-10T04:48:37;100646.66;;;4.31;100.00
47524;BME280;33253;42.144;25.884;2023-04-10T04:51:05;100636.31;;;4.43;100.00
47524;BME280;33253;42.144;25.884;2023-04-10T04:53:31;100604.28;;;4.35;100.00
47524;BME280;33253;42.144;25.884;2023-04-10T04:55:56;100653.06;;;4.65;100.00
47524;BME280;33253;42.144;25.884;2023-04-10T04:58:22;100642.13;;;4.67;100.00
47524;BME280;33253;42.144;25.884;2023-04-10T05:00:50;100641.06;;;4.64;100.00
47524;BME280;33253;42.144;25.884;2023-04-10T05:03:15;100632.69;;;4.40;100.00
47524;BME280;33253;42.144;25.884;2023-04-10T05:05:41;100637.41;;;4.33;100.00
47524;BME280;33253;42.144;25.884;2023-04-10T05:08:07;100636.13;;;4.27;100.00
47524;BME280;33253;42.144;25.884;2023-04-10T05:10:32;100633.25;;;4.22;100.00
47524;BME280;33253;42.144;25.884;2023-04-10T05:12:57;100634.75;;;4.32;100.00
47524;BME280;33253;42.144;25.884;2023-04-10T05:15:23;100588.06;;;4.08;100.00
47524;BME280;33253;42.144;25.884;2023-04-10T05:17:48;100606.13;;;4.11;100.00
47524;BME280;33253;42.144;25.884;2023-04-10T05:20:15;100636.00;;;4.12;100.00
47524;BME280;33253;42.144;25.884;2023-04-10T05:22:41;100651.94;;;4.21;100.00
47524;BME280;33253;42.144;25.884;2023-04-10T05:25:06;100649.69;;;4.26;100.00
47524;BME280;33253;42.144;25.884;2023-04-10T05:27:32;100643.50;;;4.35;100.00
47524;BME280;33253;42.144;25.884;2023-04-10T05:29:57;100654.91;;;4.67;100.00
47524;BME280;33253;42.144;25.884;2023-04-10T05:32:22;100660.00;;;4.94;100.00
47524;BME280;33253;42.144;25.884;2023-04-10T05:34:48;100631.25;;;4.98;100.00
47524;BME280;33253;42.144;25.884;2023-04-10T05:37:13;100657.94;;;5.30;100.00
47524;BME280;33253;42.144;25.884;2023-04-10T05:39:40;100608.63;;;5.19;100.00
47524;BME280;33253;42.144;25.884;2023-04-10T05:42:05;100641.13;;;5.49;100.00
47524;BME280;33253;42.144;25.884;2023-04-10T05:44:31;100656.25;;;5.59;100.00
47524;BME280;33253;42.144;25.884;2023-04-10T05:46:56;100658.75;;;5.73;100.00
47524;BME280;33253;42.144;25.884;2023-04-10T05:49:21;100661.34;;;5.88;100.00
47524;BME280;33253;42.144;25.884;2023-04-10T05:51:47;100582.69;;;5.57;100.00
47524;BME280;33253;42.144;25.884;2023-04-10T05:54:16;100645.22;;;6.04;100.00
47524;BME280;33253;42.144;25.884;2023-04-10T05:56:42;100651.69;;;6.12;100.00
47524;BME280;33253;42.144;25.884;2023-04-10T05:59:07;100584.31;;;5.70;100.00
47524;BME280;33253;42.144;25.884;2023-04-10T06:01:33;100652.41;;;6.09;100.00
47524;BME280;33253;42.144;25.884;2023-04-10T06:03:58;100656.00;;;6.13;100.00
47524;BME280;33253;42.144;25.884;2023-04-10T06:06:24;100650.06;;;6.14;100.00
47524;BME280;33253;42.144;25.884;2023-04-10T06:08:51;100646.72;;;6.00;100.00
47524;BME280;33253;42.144;25.884;2023-04-10T06:11:16;100647.50;;;5.99;100.00
47524;BME280;33253;42.144;25.884;2023-04-10T06:13:42;100650.16;;;6.15;100.00
47524;BME280;33253;42.144;25.884;2023-04-10T06:16:07;100662.91;;;6.29;100.00
47524;BME280;33253;42.144;25.884;2023-04-10T06:18:33;100650.69;;;6.40;100.00
47524;BME280;33253;42.144;25.884;2023-04-10T06:20:58;100650.41;;;6.50;100.00
47524;BME280;33253;42.144;25.884;2023-04-10T06:23:27;100651.91;;;6.46;100.00
47524;BME280;33253;42.144;25.884;2023-04-10T06:25:53;100651.53;;;6.55;100.00
47524;BME280;33253;42.144;25.884;2023-04-10T06:28:19;100653.06;;;6.52;100.00
47524;BME280;33253;42.144;25.884;2023-04-10T06:30:44;100579.91;;;6.12;100.00
47524;BME280;33253;42.144;25.884;2023-04-10T06:33:10;100650.22;;;6.62;100.00
47524;BME280;33253;42.144;25.884;2023-04-10T06:35:35;100663.03;;;6.77;100.00
47524;BME280;33253;42.144;25.884;2023-04-10T06:38:02;100651.69;;;6.73;100.00
47524;BME280;33253;42.144;25.884;2023-04-10T06:40:27;100622.09;;;6.63;100.00
47524;BME280;33253;42.144;25.884;2023-04-10T06:42:53;100652.84;;;6.78;100.00
47524;BME280;33253;42.144;25.884;2023-04-10T06:45:19;100654.31;;;6.90;100.00
47524;BME280;33253;42.144;25.884;2023-04-10T06:47:45;100647.91;;;6.98;100.00
47524;BME280;33253;42.144;25.884;2023-04-10T06:50:11;100658.50;;;7.04;100.00
47524;BME280;33253;42.144;25.884;2023-04-10T06:52:36;100658.66;;;7.07;100.00
47524;BME280;33253;42.144;25.884;2023-04-10T06:55:02;100621.28;;;6.64;100.00
47524;BME280;33253;42.144;25.884;2023-04-10T06:57:28;100627.66;;;6.56;100.00
47524;BME280;33253;42.144;25.884;2023-04-10T06:59:53;100666.81;;;6.69;100.00
47524;BME280;33253;42.144;25.884;2023-04-10T07:02:19;100670.38;;;6.71;100.00
47524;BME280;33253;42.144;25.884;2023-04-10T07:04:44;100653.72;;;6.64;100.00
47524;BME280;33253;42.144;25.884;2023-04-10T07:07:10;100657.09;;;6.78;100.00
47524;BME280;33253;42.144;25.884;2023-04-10T07:09:38;100652.97;;;6.82;100.00
47524;BME280;33253;42.144;25.884;2023-04-10T07:12:03;100672.53;;;6.94;100.00
47524;BME280;33253;42.144;25.884;2023-04-10T07:14:31;100683.69;;;6.80;100.00
47524;BME280;33253;42.144;25.884;2023-04-10T07:16:58;100668.72;;;6.88;100.00
47524;BME280;33253;42.144;25.884;2023-04-10T07:19:24;100673.25;;;6.92;100.00
47524;BME280;33253;42.144;25.884;2023-04-10T07:21:49;100673.81;;;7.03;100.00
47524;BME280;33253;42.144;25.884;2023-04-10T07:24:16;100672.28;;;7.06;100.00
47524;BME280;33253;42.144;25.884;2023-04-10T07:26:42;100622.91;;;6.79;100.00
47524;BME280;33253;42.144;25.884;2023-04-10T07:29:08;100652.34;;;6.69;100.00
47524;BME280;33253;42.144;25.884;2023-04-10T07:31:33;100666.19;;;6.73;100.00
47524;BME280;33253;42.144;25.884;2023-04-10T07:34:00;100645.34;;;6.52;100.00
47524;BME280;33253;42.144;25.884;2023-04-10T07:36:25;100661.88;;;6.72;100.00
47524;BME280;33253;42.144;25.884;2023-04-10T07:38:51;100626.00;;;6.57;100.00
47524;BME280;33253;42.144;25.884;2023-04-10T07:41:16;100664.50;;;6.88;100.00
47524;BME280;33253;42.144;25.884;2023-04-10T07:43:42;100665.69;;;6.95;100.00
47524;BME280;33253;42.144;25.884;2023-04-10T07:46:07;100661.53;;;6.97;100.00
47524;BME280;33253;42.144;25.884;2023-04-10T07:48:33;100663.84;;;6.92;100.00
47524;BME280;33253;42.144;25.884;2023-04-10T07:50:58;100670.00;;;6.79;100.00
47524;BME280;33253;42.144;25.884;2023-04-10T07:53:24;100664.00;;;6.64;100.00
47524;BME280;33253;42.144;25.884;2023-04-10T07:55:49;100632.06;;;6.59;100.00
47524;BME280;33253;42.144;25.884;2023-04-10T07:58:15;100667.31;;;6.93;100.00
47524;BME280;33253;42.144;25.884;2023-04-10T08:00:40;100660.75;;;6.98;100.00
47524;BME280;33253;42.144;25.884;2023-04-10T08:03:06;100664.25;;;7.00;100.00
47524;BME280;33253;42.144;25.884;2023-04-10T08:05:32;100663.31;;;6.98;100.00
47524;BME280;33253;42.144;25.884;2023-04-10T08:07:58;100661.47;;;6.95;100.00
47524;BME280;33253;42.144;25.884;2023-04-10T08:10:24;100642.53;;;7.10;100.00
47524;BME280;33253;42.144;25.884;2023-04-10T08:12:49;100646.22;;;7.15;100.00
47524;BME280;33253;42.144;25.884;2023-04-10T08:15:16;100634.22;;;7.14;100.00
47524;BME280;33253;42.144;25.884;2023-04-10T08:17:42;100641.44;;;7.21;100.00
47524;BME280;33253;42.144;25.884;2023-04-10T08:20:08;100640.31;;;7.33;100.00
47524;BME280;33253;42.144;25.884;2023-04-10T08:22:33;100633.56;;;7.35;100.00
47524;BME280;33253;42.144;25.884;2023-04-10T08:24:59;100596.78;;;7.03;100.00
47524;BME280;33253;42.144;25.884;2023-04-10T08:27:24;100616.47;;;7.19;100.00
47524;BME280;33253;42.144;25.884;2023-04-10T08:29:50;100586.31;;;6.98;100.00
47524;BME280;33253;42.144;25.884;2023-04-10T08:32:15;100647.53;;;7.07;100.00
47524;BME280;33253;42.144;25.884;2023-04-10T08:34:40;100631.81;;;7.17;100.00
47524;BME280;33253;42.144;25.884;2023-04-10T08:37:07;100629.41;;;7.20;100.00
47524;BME280;33253;42.144;25.884;2023-04-10T08:39:37;100612.47;;;7.24;100.00
47524;BME280;33253;42.144;25.884;2023-04-10T08:42:05;100625.13;;;7.54;100.00
47524;BME280;33253;42.144;25.884;2023-04-10T08:44:30;100605.88;;;7.62;100.00
47524;BME280;33253;42.144;25.884;2023-04-10T08:46:58;100603.84;;;7.73;100.00
47524;BME280;33253;42.144;25.884;2023-04-10T08:49:46;100628.34;;;8.01;100.00
47524;BME280;33253;42.144;25.884;2023-04-10T08:52:14;100626.09;;;8.07;100.00
47524;BME280;33253;42.144;25.884;2023-04-10T08:54:47;100621.97;;;8.10;100.00
47524;BME280;33253;42.144;25.884;2023-04-10T08:57:15;100623.47;;;8.23;100.00
47524;BME280;33253;42.144;25.884;2023-04-10T08:59:49;100574.66;;;8.07;100.00
47524;BME280;33253;42.144;25.884;2023-04-10T09:02:16;100622.16;;;8.32;100.00
47524;BME280;33253;42.144;25.884;2023-04-10T09:04:49;100598.19;;;8.33;100.00
47524;BME280;33253;42.144;25.884;2023-04-10T09:07:16;100602.31;;;8.47;100.00
47524;BME280;33253;42.144;25.884;2023-04-10T09:09:42;100591.53;;;8.54;100.00
47524;BME280;33253;42.144;25.884;2023-04-10T09:12:07;100595.47;;;8.66;100.00
47524;BME280;33253;42.144;25.884;2023-04-10T09:14:34;100601.13;;;8.77;100.00
47524;BME280;33253;42.144;25.884;2023-04-10T09:17:22;100594.78;;;8.88;100.00
47524;BME280;33253;42.144;25.884;2023-04-10T09:19:56;100569.50;;;8.79;100.00
47524;BME280;33253;42.144;25.884;2023-04-10T09:22:33;100595.63;;;9.06;100.00
47524;BME280;33253;42.144;25.884;2023-04-10T09:25:00;100585.00;;;9.18;100.00
47524;BME280;33253;42.144;25.884;2023-04-10T09:27:34;100560.09;;;9.19;100.00
47524;BME280;33253;42.144;25.884;2023-04-10T09:30:01;100590.06;;;9.56;100.00
47524;BME280;33253;42.144;25.884;2023-04-10T09:32:43;100590.31;;;9.62;100.00
47524;BME280;33253;42.144;25.884;2023-04-10T09:35:13;100580.94;;;9.64;100.00
47524;BME280;33253;42.144;25.884;2023-04-10T09:37:39;100568.13;;;9.66;100.00
47524;BME280;33253;42.144;25.884;2023-04-10T09:40:19;100563.28;;;9.74;100.00
47524;BME280;33253;42.144;25.884;2023-04-10T09:42:44;100574.06;;;9.84;100.00
47524;BME280;33253;42.144;25.884;2023-04-10T09:45:10;100576.75;;;9.87;100.00
47524;BME280;33253;42.144;25.884;2023-04-10T09:47:36;100566.69;;;9.94;100.00
47524;BME280;33253;42.144;25.884;2023-04-10T09:50:02;100560.22;;;10.03;100.00
47524;BME280;33253;42.144;25.884;2023-04-10T09:52:34;100565.63;;;10.10;100.00
47524;BME280;33253;42.144;25.884;2023-04-10T09:55:06;100564.88;;;10.12;100.00
47524;BME280;33253;42.144;25.884;2023-04-10T09:57:33;100546.91;;;10.15;100.00
47524;BME280;33253;42.144;25.884;2023-04-10T10:00:04;100549.75;;;10.22;100.00
47524;BME280;33253;42.144;25.884;2023-04-10T10:02:35;100554.84;;;10.20;100.00
47524;BME280;33253;42.144;25.884;2023-04-10T10:05:01;100557.84;;;10.31;100.00
47524;BME280;33253;42.144;25.884;2023-04-10T10:07:28;100557.09;;;10.33;100.00
47524;BME280;33253;42.144;25.884;2023-04-10T10:09:55;100549.31;;;10.32;100.00
47524;BME280;33253;42.144;25.884;2023-04-10T10:12:27;100537.53;;;10.39;100.00
47524;BME280;33253;42.144;25.884;2023-04-10T10:17:45;100537.88;;;10.48;100.00
47524;BME280;33253;42.144;25.884;2023-04-10T10:20:19;100542.41;;;10.54;100.00
47524;BME280;33253;42.144;25.884;2023-04-10T10:22:48;100536.63;;;10.59;100.00
47524;BME280;33253;42.144;25.884;2023-04-10T10:25:15;100523.56;;;10.56;100.00
47524;BME280;33253;42.144;25.884;2023-04-10T10:28:03;100527.16;;;10.60;100.00
47524;BME280;33253;42.144;25.884;2023-04-10T10:30:32;100534.13;;;10.62;100.00
47524;BME280;33253;42.144;25.884;2023-04-10T10:33:00;100537.09;;;10.72;100.00
47524;BME280;33253;42.144;25.884;2023-04-10T10:35:27;100532.56;;;10.66;100.00
47524;BME280;33253;42.144;25.884;2023-04-10T10:37:59;100532.88;;;10.75;100.00
47524;BME280;33253;42.144;25.884;2023-04-10T10:40:40;100525.22;;;10.77;100.00
47524;BME280;33253;42.144;25.884;2023-04-10T10:46:08;100500.63;;;10.64;100.00
47524;BME280;33253;42.144;25.884;2023-04-10T10:48:35;100512.06;;;10.71;100.00
47524;BME280;33253;42.144;25.884;2023-04-10T10:51:01;100511.63;;;10.82;100.00
47524;BME280;33253;42.144;25.884;2023-04-10T10:53:31;100513.63;;;10.90;100.00
47524;BME280;33253;42.144;25.884;2023-04-10T10:55:57;100498.75;;;10.84;100.00
47524;BME280;33253;42.144;25.884;2023-04-10T10:58:44;100509.28;;;10.89;100.00
47524;BME280;33253;42.144;25.884;2023-04-10T11:01:10;100491.25;;;10.90;100.00
47524;BME280;33253;42.144;25.884;2023-04-10T11:03:35;100497.34;;;10.92;100.00
47524;BME280;33253;42.144;25.884;2023-04-10T11:06:03;100489.66;;;10.94;100.00
47524;BME280;33253;42.144;25.884;2023-04-10T11:08:39;100491.47;;;10.96;100.00
47524;BME280;33253;42.144;25.884;2023-04-10T11:11:19;100490.69;;;10.99;100.00
47524;BME280;33253;42.144;25.884;2023-04-10T11:16:42;100484.22;;;11.10;100.00
47524;BME280;33253;42.144;25.884;2023-04-10T11:19:09;100481.84;;;11.16;100.00
47524;BME280;33253;42.144;25.884;2023-04-10T11:22:01;100489.81;;;11.23;100.00
47524;BME280;33253;42.144;25.884;2023-04-10T11:24:28;100487.41;;;11.29;100.00
47524;BME280;33253;42.144;25.884;2023-04-10T11:26:54;100485.13;;;11.37;100.00
47524;BME280;33253;42.144;25.884;2023-04-10T11:31:59;100480.41;;;11.51;100.00
47524;BME280;33253;42.144;25.884;2023-04-10T11:34:27;100458.13;;;11.54;100.00
47524;BME280;33253;42.144;25.884;2023-04-10T11:39:30;100460.13;;;11.63;100.00
47524;BME280;33253;42.144;25.884;2023-04-10T11:41:55;100424.47;;;11.53;100.00
47524;BME280;33253;42.144;25.884;2023-04-10T11:46:50;100454.06;;;11.90;100.00
47524;BME280;33253;42.144;25.884;2023-04-10T11:49:19;100457.03;;;12.01;100.00
47524;BME280;33253;42.144;25.884;2023-04-10T11:51:47;100432.19;;;11.80;99.51
47524;BME280;33253;42.144;25.884;2023-04-10T11:54:15;100424.38;;;11.78;97.49
47524;BME280;33253;42.144;25.884;2023-04-10T11:56:43;100413.91;;;11.74;96.81
47524;BME280;33253;42.144;25.884;2023-04-10T11:59:09;100441.88;;;11.86;96.52
47524;BME280;33253;42.144;25.884;2023-04-10T12:01:38;100445.31;;;11.86;97.52
47524;BME280;33253;42.144;25.884;2023-04-10T12:04:21;100440.94;;;11.84;97.57
47524;BME280;33253;42.144;25.884;2023-04-10T12:06:52;100440.16;;;11.86;99.62
47524;BME280;33253;42.144;25.884;2023-04-10T12:09:18;100443.63;;;11.87;98.13
47524;BME280;33253;42.144;25.884;2023-04-10T12:14:41;100401.09;;;11.49;97.26
47524;BME280;33253;42.144;25.884;2023-04-10T12:17:10;100443.09;;;11.70;98.07
47524;BME280;33253;42.144;25.884;2023-04-10T12:19:38;100428.28;;;11.64;99.53
47524;BME280;33253;42.144;25.884;2023-04-10T12:22:03;100434.31;;;11.64;100.00
47524;BME280;33253;42.144;25.884;2023-04-10T12:24:42;100410.78;;;11.29;100.00
47524;BME280;33253;42.144;25.884;2023-04-10T12:27:18;100434.41;;;11.40;100.00
47524;BME280;33253;42.144;25.884;2023-04-10T12:29:45;100427.28;;;11.33;100.00
47524;BME280;33253;42.144;25.884;2023-04-10T12:32:11;100431.69;;;11.37;100.00
47524;BME280;33253;42.144;25.884;2023-04-10T12:34:37;100428.72;;;11.25;100.00
47524;BME280;33253;42.144;25.884;2023-04-10T12:37:03;100386.78;;;11.08;100.00
47524;BME280;33253;42.144;25.884;2023-04-10T12:39:29;100440.91;;;11.29;100.00
47524;BME280;33253;42.144;25.884;2023-04-10T12:42:19;100441.19;;;11.37;100.00
47524;BME280;33253;42.144;25.884;2023-04-10T12:44:51;100439.78;;;11.21;100.00
47524;BME280;33253;42.144;25.884;2023-04-10T12:47:17;100431.00;;;11.15;100.00
47524;BME280;33253;42.144;25.884;2023-04-10T12:50:08;100440.22;;;11.09;100.00
47524;BME280;33253;42.144;25.884;2023-04-10T12:52:36;100442.28;;;10.93;100.00
47524;BME280;33253;42.144;25.884;2023-04-10T12:57:40;100442.47;;;10.98;100.00
47524;BME280;33253;42.144;25.884;2023-04-10T13:00:10;100435.47;;;10.95;100.00
47524;BME280;33253;42.144;25.884;2023-04-10T13:02:37;100436.34;;;10.96;100.00
47524;BME280;33253;42.144;25.884;2023-04-10T13:05:03;100425.25;;;10.98;100.00
47524;BME280;33253;42.144;25.884;2023-04-10T13:07:29;100449.13;;;11.17;100.00
47524;BME280;33253;42.144;25.884;2023-04-10T13:09:56;100425.91;;;11.19;100.00
47524;BME280;33253;42.144;25.884;2023-04-10T13:12:21;100431.97;;;11.19;100.00
47524;BME280;33253;42.144;25.884;2023-04-10T13:14:48;100430.56;;;11.03;100.00
47524;BME280;33253;42.144;25.884;2023-04-10T13:17:15;100434.84;;;11.03;100.00